Trumansburg, NY

4:48 PM EDT on September 21, 2014 (GMT -0400)
KNYTRUMA2 | Change Station
CLOSE
Current Station
Personal Weather Station
Location: Trumansburg, NY
Elevation: 1014 ft
Nearby Weather Stations

Elev 1014 ft 42.53 °N, 76.68 °W | Updated 2 minutes ago

Rain
Rain
63.7 °F
Feels Like 63.7 °F
N
0.0
Wind Variable Wind from SE
Gusts 15.0 mph

Today
High -- | Low -- °F
--% Chance of Precip.
Yesterday
High -- | Low -- °F
Precip. -- in
6:52 AM 7:05 PM
Waning Crescent, 5% visible
Pressure 29.60 in
Visibility 10.0 miles
Clouds Mostly Cloudy 3300 ft
Dew Point 62 °F
Humidity 95%
Rainfall 0.83 in
Snow Depth Not available.
UV 2 out of 12
Pollen .50 out of 12
PM2.5 Good
Flu Activity Not available.
METAR KITH 211956Z 21011KT 10SM BKN033 26/18 A2962 RMK AO2 T02550177 RAB12E29 P0000 SLP023

More Conditions Fewer Conditions

Pressure 29.60 in
Visibility 10.0 miles
Clouds Mostly Cloudy 3300 ft
Dew Point 62 °F
Humidity 95%
Rainfall 0.83 in
Snow Depth Not available.
UV 2 out of 12
Pollen .50 out of 12
PM2.5 Good
Flu Activity Not available.
METAR KITH 211956Z 21011KT 10SM BKN033 26/18 A2962 RMK AO2 T02550177 RAB12E29 P0000 SLP023

More Conditions Fewer Conditions

Nowcast | as of 2:21 PM EDT on September 21, 2014

At 3 PM...showers likely with a chance of thunderstorms. Temperature around 75. Southwest winds around 10 mph. At 5 PM...showers likely with a chance of thunderstorms. Temperature around 71. West winds 5 to 10 mph. At 7 PM...cloudy with a chance of showers. Temperature around 66. Northwest winds around 5 mph.

×

10-Day Weather Forecast

Almanac

Astronomy

Sep. 21, 2014 Rise Set
Actual Time 6:52 AM EDT 7:05 PM EDT
Civil Twilight 6:24 AM EDT 7:33 PM EDT
Nautical Twilight 5:51 AM EDT 8:06 PM EDT
Astronomical Twilight 5:17 AM EDT 8:40 PM EDT
Moon 4:22 AM EDT 5:42 PM EDT
Length of Visible Light 13h 09m
Length of Day
12h 12m
Tomorrow will be 2m 52s shorter.
Waning Crescent, 5% of the Moon is Illuminated
Today
Waning Crescent
Sep 24
New
Oct 1
First Quarter
Oct 8
Full
Oct 15
Last Quarter

Today's Extremes

State Highs State Lows

Community

WunderPhotos

Upload Photos

1,755,250 photos uploaded!

Nearby

Air Quality

  Air Quality AQ Index Pollutant
Yesterday Good
PM2.5
Yesterday Good
OZONE
Current Good
PM2.5
Sunday Good
PM2.5
Sunday Good
OZONE
Monday Good
OZONE
Monday Good
PM2.5

Snow Depth

Station Depth Elevation
No new snow has been reported.

Earthquake Activity

City Distance Mag. Time & Date
No recent earthquake activity has been reported nearby.
Minimum magnitude displayed is 2.5.

Coastal Water Temperatures

Place Temperature
No Stations Reporting

Nearby Weather Stations